createdAt,value
2023-05-14T00:01:10.761Z,9.20
2023-05-14T00:06:12.291Z,11.55
2023-05-14T00:11:13.803Z,8.15
2023-05-14T00:16:16.016Z,9.85
2023-05-14T00:21:17.592Z,7.75
2023-05-14T00:26:20.225Z,7.75
2023-05-14T00:31:22.124Z,11.52
2023-05-14T00:36:23.726Z,8.35
2023-05-14T00:41:25.511Z,8.15
2023-05-14T00:46:27.643Z,8.82
2023-05-14T00:51:29.535Z,8.82
2023-05-14T00:56:31.700Z,9.75
2023-05-14T01:01:33.565Z,8.55
2023-05-14T01:06:53.796Z,8.05
2023-05-14T01:12:05.905Z,8.45
2023-05-14T01:17:10.728Z,7.88
2023-05-14T01:22:12.720Z,7.35
2023-05-14T01:27:27.800Z,7.78
2023-05-14T01:32:30.965Z,8.25
2023-05-14T01:37:32.923Z,8.15
2023-05-14T01:42:34.894Z,9.07
2023-05-14T01:47:36.596Z,6.60
2023-05-14T01:52:38.178Z,7.18
2023-05-14T01:57:39.721Z,7.50
2023-05-14T02:02:41.406Z,7.32
2023-05-14T02:07:45.825Z,7.63
2023-05-14T02:12:47.316Z,6.78
2023-05-14T02:17:48.847Z,9.02
2023-05-14T02:22:50.479Z,8.00
2023-05-14T02:27:52.022Z,7.75
2023-05-14T02:32:53.616Z,8.15
2023-05-14T02:37:56.215Z,7.55
2023-05-14T02:42:57.871Z,9.05
2023-05-14T02:47:59.441Z,10.13
2023-05-14T02:53:01.782Z,8.75
2023-05-14T02:58:03.476Z,8.73
2023-05-14T03:03:05.088Z,7.90
2023-05-14T03:08:07.397Z,11.07
2023-05-14T03:13:08.990Z,10.15
2023-05-14T03:18:10.641Z,10.73
2023-05-14T03:23:12.547Z,11.07
2023-05-14T03:28:14.134Z,9.32
2023-05-14T03:33:15.781Z,8.65
2023-05-14T03:38:17.549Z,8.95
2023-05-14T03:43:21.566Z,10.30
2023-05-14T03:48:24.029Z,11.20
2023-05-14T03:53:25.619Z,10.90
2023-05-14T03:58:27.124Z,9.68
2023-05-14T04:03:31.316Z,9.52
2023-05-14T04:08:33.131Z,10.60
2023-05-14T04:13:35.296Z,9.45
2023-05-14T04:18:37.007Z,8.32
2023-05-14T04:23:38.621Z,9.55
2023-05-14T04:28:40.535Z,10.55
2023-05-14T04:33:42.265Z,9.73
2023-05-14T04:38:43.761Z,10.25
2023-05-14T04:43:47.241Z,9.77
2023-05-14T04:48:49.189Z,9.15
2023-05-14T04:53:50.731Z,8.85
2023-05-14T04:58:52.313Z,8.73
2023-05-14T05:03:53.949Z,9.00
2023-05-14T05:08:56.148Z,9.75
2023-05-14T05:13:57.673Z,10.15
2023-05-14T05:18:59.343Z,9.27
2023-05-14T05:24:00.932Z,9.55
2023-05-14T05:29:04.110Z,9.55
2023-05-14T05:34:05.985Z,9.82
2023-05-14T05:39:07.576Z,9.65
2023-05-14T05:44:09.356Z,8.65
2023-05-14T05:49:10.960Z,7.80
2023-05-14T05:54:12.456Z,10.65
2023-05-14T05:59:14.031Z,9.20
2023-05-14T06:04:15.624Z,10.77
2023-05-14T06:09:17.155Z,8.52
2023-05-14T06:14:18.704Z,10.27
2023-05-14T06:19:20.346Z,9.18
2023-05-14T06:24:21.920Z,8.57
2023-05-14T06:29:23.479Z,7.45
2023-05-14T06:34:27.639Z,8.65
2023-05-14T06:39:29.379Z,8.10
2023-05-14T06:44:31.642Z,7.32
2023-05-14T06:49:33.254Z,8.10
2023-05-14T06:54:34.808Z,8.38
2023-05-14T06:59:36.386Z,7.90
2023-05-14T07:04:37.977Z,8.82
2023-05-14T07:09:39.576Z,7.20
2023-05-14T07:14:41.111Z,9.40
2023-05-14T07:19:42.648Z,7.75
2023-05-14T07:24:44.247Z,8.75
2023-05-14T07:29:45.829Z,7.90
2023-05-14T07:34:47.408Z,8.68
2023-05-14T07:39:51.373Z,9.25
2023-05-14T07:44:52.919Z,7.57
2023-05-14T07:49:55.595Z,9.15
2023-05-14T07:54:57.186Z,9.13
2023-05-14T07:59:58.814Z,7.88
2023-05-14T08:05:00.551Z,8.75
2023-05-14T08:10:02.356Z,7.40
2023-05-14T08:15:04.455Z,7.88
2023-05-14T08:20:06.915Z,7.82
2023-05-14T08:25:08.665Z,8.35
2023-05-14T08:30:10.651Z,7.55
2023-05-14T08:35:12.283Z,7.90
2023-05-14T08:40:13.988Z,10.63
2023-05-14T08:45:20.646Z,6.03
2023-05-14T08:50:23.527Z,7.95
2023-05-14T08:55:26.730Z,7.75
2023-05-14T09:00:28.431Z,6.45
2023-05-14T09:05:30.055Z,6.30
2023-05-14T09:10:32.497Z,6.90
2023-05-14T09:15:36.344Z,6.18
2023-05-14T09:20:38.645Z,5.70
2023-05-14T09:25:40.287Z,5.97
2023-05-14T09:30:41.830Z,6.07
2023-05-14T09:35:43.506Z,5.60
2023-05-14T09:40:46.436Z,6.80
2023-05-14T09:45:50.102Z,5.38
2023-05-14T09:50:52.289Z,6.20
2023-05-14T09:55:53.819Z,6.55
2023-05-14T10:00:57.779Z,4.30
2023-05-14T10:06:06.437Z,5.45
2023-05-14T10:11:13.651Z,6.90
2023-05-14T10:16:28.584Z,5.25
2023-05-14T10:21:32.125Z,5.65
2023-05-14T10:26:39.113Z,5.10
2023-05-14T10:31:54.069Z,4.15
2023-05-14T10:36:59.768Z,4.80
2023-05-14T10:42:01.311Z,5.30
2023-05-14T10:47:03.384Z,6.68
2023-05-14T10:52:08.954Z,4.22
2023-05-14T10:57:11.712Z,4.90
2023-05-14T11:02:23.197Z,5.30
2023-05-14T11:07:29.611Z,4.95
2023-05-14T11:12:33.669Z,5.25
2023-05-14T11:17:36.660Z,4.53
2023-05-14T11:22:40.047Z,5.32
2023-05-14T11:27:43.269Z,7.10
2023-05-14T11:32:49.328Z,6.60
2023-05-14T11:37:54.986Z,6.75
2023-05-14T11:42:56.645Z,7.55
2023-05-14T11:48:00.431Z,5.53
2023-05-14T11:53:02.057Z,6.90
2023-05-14T11:58:03.704Z,6.20
2023-05-14T12:03:05.700Z,5.03
2023-05-14T12:08:31.750Z,5.93
2023-05-14T12:13:33.445Z,4.57
2023-05-14T12:18:35.724Z,5.22
2023-05-14T12:23:38.823Z,6.80
2023-05-14T12:28:43.466Z,5.43
2023-05-14T12:33:45.787Z,5.85
2023-05-14T12:38:47.432Z,5.38
2023-05-14T12:43:49.719Z,8.10
2023-05-14T12:48:53.203Z,5.45
2023-05-14T12:53:55.084Z,5.47
2023-05-14T12:58:56.742Z,6.88
2023-05-14T13:03:59.631Z,7.47
2023-05-14T13:09:02.429Z,5.35
2023-05-14T13:14:04.010Z,4.78
2023-05-14T13:19:05.663Z,5.30
2023-05-14T13:24:07.529Z,5.13
2023-05-14T13:29:11.464Z,7.90
2023-05-14T13:34:13.197Z,6.32
2023-05-14T13:39:14.833Z,5.90
2023-05-14T13:44:16.834Z,6.15
2023-05-14T13:49:18.787Z,6.93
2023-05-14T13:54:20.351Z,8.77
2023-05-14T13:59:22.042Z,4.47
2023-05-14T14:04:25.654Z,5.10
2023-05-14T14:09:27.171Z,3.95
2023-05-14T14:14:28.704Z,5.68
2023-05-14T14:19:30.228Z,4.72
2023-05-14T14:24:31.768Z,4.68
2023-05-14T14:29:34.396Z,4.57
2023-05-14T14:34:36.147Z,4.75
2023-05-14T14:39:37.845Z,8.45
2023-05-14T14:44:39.381Z,5.07
2023-05-14T14:49:41.017Z,4.38
2023-05-14T14:54:42.555Z,4.60
2023-05-14T14:59:44.309Z,4.72
2023-05-14T15:04:45.976Z,4.93
2023-05-14T15:09:47.604Z,5.50
2023-05-14T15:14:49.167Z,5.93
2023-05-14T15:19:50.730Z,5.10
2023-05-14T15:24:52.338Z,4.93
2023-05-14T15:29:53.876Z,5.70
2023-05-14T15:34:55.648Z,4.68
2023-05-14T15:39:57.173Z,4.55
2023-05-14T15:44:58.723Z,4.68
2023-05-14T15:50:00.690Z,4.07
2023-05-14T15:55:02.604Z,5.47
2023-05-14T16:00:10.399Z,6.10
2023-05-14T16:05:13.689Z,4.05
2023-05-14T16:10:15.648Z,3.65
2023-05-14T16:15:17.279Z,5.03
2023-05-14T16:20:18.868Z,4.13
2023-05-14T16:25:20.456Z,4.03
2023-05-14T16:30:22.167Z,3.90
2023-05-14T16:35:23.792Z,6.93
2023-05-14T16:40:25.747Z,5.88
2023-05-14T16:45:27.496Z,4.22
2023-05-14T16:50:29.141Z,5.47
2023-05-14T16:55:30.816Z,4.95
2023-05-14T17:00:32.402Z,4.95
2023-05-14T17:05:36.576Z,4.28
2023-05-14T17:10:38.149Z,4.63
2023-05-14T17:15:41.877Z,4.85
2023-05-14T17:20:43.480Z,6.68
2023-05-14T17:25:45.114Z,4.95
2023-05-14T17:30:46.725Z,4.30
2023-05-14T17:35:48.779Z,4.45
2023-05-14T17:40:50.391Z,4.40
2023-05-14T17:45:54.560Z,4.95
2023-05-14T17:50:56.406Z,4.28
2023-05-14T17:55:57.942Z,4.75
2023-05-14T18:00:59.511Z,5.85
2023-05-14T18:06:01.175Z,4.28
2023-05-14T18:11:02.736Z,4.25
2023-05-14T18:16:04.672Z,4.68
2023-05-14T18:21:06.281Z,6.03
2023-05-14T18:26:07.894Z,3.83
2023-05-14T18:31:09.652Z,4.30
2023-05-14T18:36:11.622Z,6.63
2023-05-14T18:41:13.184Z,3.97
2023-05-14T18:46:15.869Z,7.03
2023-05-14T18:51:17.421Z,4.45
2023-05-14T18:56:19.162Z,3.97
2023-05-14T19:01:21.380Z,2.92
2023-05-14T19:06:23.007Z,3.35
2023-05-14T19:11:24.654Z,3.90
2023-05-14T19:16:26.664Z,4.00
2023-05-14T19:21:28.281Z,3.30
2023-05-14T19:26:29.850Z,3.85
2023-05-14T19:31:31.465Z,3.20
2023-05-14T19:36:33.134Z,3.47
2023-05-14T19:41:34.622Z,3.92
2023-05-14T19:46:36.241Z,4.50
2023-05-14T19:51:37.877Z,3.88
2023-05-14T19:56:39.447Z,6.55
2023-05-14T20:01:41.422Z,4.85
2023-05-14T20:06:45.402Z,4.38
2023-05-14T20:11:47.006Z,4.57
2023-05-14T20:16:49.049Z,4.65
2023-05-14T20:21:50.614Z,4.43
2023-05-14T20:26:52.322Z,6.53
2023-05-14T20:31:53.892Z,5.70
2023-05-14T20:36:56.015Z,4.47
2023-05-14T20:41:57.534Z,4.93
2023-05-14T20:46:59.254Z,7.22
2023-05-14T20:52:00.862Z,5.00
2023-05-14T20:57:02.423Z,5.97
2023-05-14T21:02:04.555Z,5.00
2023-05-14T21:07:06.842Z,5.60
2023-05-14T21:12:08.765Z,5.95
2023-05-14T21:17:10.784Z,5.55
2023-05-14T21:22:12.825Z,6.18
2023-05-14T21:27:14.373Z,6.63
2023-05-14T21:32:16.041Z,6.43
2023-05-14T21:37:17.636Z,7.47
2023-05-14T21:42:20.983Z,6.63
2023-05-14T21:47:22.684Z,5.88
2023-05-14T21:52:24.239Z,8.25
2023-05-14T21:57:28.047Z,7.70
2023-05-14T22:02:30.239Z,6.63
2023-05-14T22:07:32.820Z,6.38
2023-05-14T22:12:34.374Z,9.10
2023-05-14T22:17:36.072Z,5.78
2023-05-14T22:22:38.004Z,5.82
2023-05-14T22:27:39.539Z,6.25
2023-05-14T22:32:41.124Z,7.95
2023-05-14T22:37:42.689Z,8.10
2023-05-14T22:42:44.274Z,5.70
2023-05-14T22:47:45.966Z,5.45
2023-05-14T22:52:47.503Z,6.63
2023-05-14T22:57:49.105Z,8.07
2023-05-14T23:02:50.874Z,9.82
2023-05-14T23:07:53.334Z,6.47
2023-05-14T23:12:54.970Z,5.60
2023-05-14T23:17:56.684Z,8.50
2023-05-14T23:22:58.325Z,6.88
2023-05-14T23:27:59.903Z,7.40
2023-05-14T23:33:01.692Z,8.07
2023-05-14T23:38:04.547Z,8.07
2023-05-14T23:43:06.066Z,7.35
2023-05-14T23:48:09.780Z,8.38
2023-05-14T23:53:11.303Z,11.30
2023-05-14T23:58:12.898Z,8.80
